sensor_id;sensor_type;location;lat;lon;timestamp;P1;durP1;ratioP1;P2;durP2;ratioP2
7338;SDS011;33747;49.524;8.390;2023-03-29T00:01:34;3.97;;;2.72;;
7338;SDS011;33747;49.524;8.390;2023-03-29T00:04:00;4.22;;;2.42;;
7338;SDS011;33747;49.524;8.390;2023-03-29T00:06:26;5.25;;;2.60;;
7338;SDS011;33747;49.524;8.390;2023-03-29T00:08:57;4.50;;;2.13;;
7338;SDS011;33747;49.524;8.390;2023-03-29T00:11:23;2.65;;;2.08;;
7338;SDS011;33747;49.524;8.390;2023-03-29T00:13:48;4.82;;;2.30;;
7338;SDS011;33747;49.524;8.390;2023-03-29T00:16:14;3.33;;;2.22;;
7338;SDS011;33747;49.524;8.390;2023-03-29T00:18:39;2.58;;;2.13;;
7338;SDS011;33747;49.524;8.390;2023-03-29T00:21:05;2.47;;;1.90;;
7338;SDS011;33747;49.524;8.390;2023-03-29T00:23:30;3.15;;;2.00;;
7338;SDS011;33747;49.524;8.390;2023-03-29T00:25:56;3.17;;;2.53;;
7338;SDS011;33747;49.524;8.390;2023-03-29T00:28:21;4.53;;;2.50;;
7338;SDS011;33747;49.524;8.390;2023-03-29T00:30:47;4.72;;;2.70;;
7338;SDS011;33747;49.524;8.390;2023-03-29T00:33:14;5.10;;;2.53;;
7338;SDS011;33747;49.524;8.390;2023-03-29T00:35:40;3.80;;;2.13;;
7338;SDS011;33747;49.524;8.390;2023-03-29T00:38:06;7.53;;;2.42;;
7338;SDS011;33747;49.524;8.390;2023-03-29T00:40:32;6.82;;;2.45;;
7338;SDS011;33747;49.524;8.390;2023-03-29T00:42:57;3.88;;;2.10;;
7338;SDS011;33747;49.524;8.390;2023-03-29T00:45:24;5.18;;;2.50;;
7338;SDS011;33747;49.524;8.390;2023-03-29T00:47:55;6.45;;;3.00;;
7338;SDS011;33747;49.524;8.390;2023-03-29T00:53:29;11.07;;;2.67;;
7338;SDS011;33747;49.524;8.390;2023-03-29T00:56:05;4.13;;;2.45;;
7338;SDS011;33747;49.524;8.390;2023-03-29T00:58:35;4.10;;;2.45;;
7338;SDS011;33747;49.524;8.390;2023-03-29T01:01:05;4.40;;;2.63;;
7338;SDS011;33747;49.524;8.390;2023-03-29T01:03:34;4.13;;;2.10;;
7338;SDS011;33747;49.524;8.390;2023-03-29T01:06:10;5.95;;;2.15;;
7338;SDS011;33747;49.524;8.390;2023-03-29T01:08:40;4.38;;;2.30;;
7338;SDS011;33747;49.524;8.390;2023-03-29T01:11:46;3.63;;;2.42;;
7338;SDS011;33747;49.524;8.390;2023-03-29T01:14:24;4.88;;;2.78;;
7338;SDS011;33747;49.524;8.390;2023-03-29T01:16:52;4.00;;;2.42;;
7338;SDS011;33747;49.524;8.390;2023-03-29T01:19:18;4.00;;;2.35;;
7338;SDS011;33747;49.524;8.390;2023-03-29T01:22:08;8.48;;;2.58;;
7338;SDS011;33747;49.524;8.390;2023-03-29T01:24:39;5.00;;;2.72;;
7338;SDS011;33747;49.524;8.390;2023-03-29T01:27:31;7.32;;;2.42;;
7338;SDS011;33747;49.524;8.390;2023-03-29T01:30:40;6.78;;;2.70;;
7338;SDS011;33747;49.524;8.390;2023-03-29T01:33:16;7.18;;;3.03;;
7338;SDS011;33747;49.524;8.390;2023-03-29T01:39:12;8.85;;;2.13;;
7338;SDS011;33747;49.524;8.390;2023-03-29T01:41:15;2.40;;;2.20;;
7338;SDS011;33747;49.524;8.390;2023-03-29T01:43:46;3.15;;;1.85;;
7338;SDS011;33747;49.524;8.390;2023-03-29T01:46:30;5.43;;;2.28;;
7338;SDS011;33747;49.524;8.390;2023-03-29T01:48:58;5.13;;;2.17;;
7338;SDS011;33747;49.524;8.390;2023-03-29T01:51:30;2.70;;;2.08;;
7338;SDS011;33747;49.524;8.390;2023-03-29T01:54:07;7.47;;;2.20;;
7338;SDS011;33747;49.524;8.390;2023-03-29T01:56:35;3.83;;;2.15;;
7338;SDS011;33747;49.524;8.390;2023-03-29T01:59:04;4.95;;;2.20;;
7338;SDS011;33747;49.524;8.390;2023-03-29T02:01:33;6.57;;;2.92;;
7338;SDS011;33747;49.524;8.390;2023-03-29T02:04:02;6.65;;;2.67;;
7338;SDS011;33747;49.524;8.390;2023-03-29T02:06:29;3.05;;;2.22;;
7338;SDS011;33747;49.524;8.390;2023-03-29T02:08:56;6.05;;;3.17;;
7338;SDS011;33747;49.524;8.390;2023-03-29T02:11:22;3.60;;;2.47;;
7338;SDS011;33747;49.524;8.390;2023-03-29T02:13:48;3.28;;;1.90;;
7338;SDS011;33747;49.524;8.390;2023-03-29T02:16:14;7.50;;;2.35;;
7338;SDS011;33747;49.524;8.390;2023-03-29T02:18:40;6.65;;;2.75;;
7338;SDS011;33747;49.524;8.390;2023-03-29T02:21:14;6.15;;;2.53;;
7338;SDS011;33747;49.524;8.390;2023-03-29T02:23:45;6.65;;;2.70;;
7338;SDS011;33747;49.524;8.390;2023-03-29T02:26:13;4.35;;;2.45;;
7338;SDS011;33747;49.524;8.390;2023-03-29T02:28:39;5.63;;;2.47;;
7338;SDS011;33747;49.524;8.390;2023-03-29T02:31:19;4.95;;;2.78;;
7338;SDS011;33747;49.524;8.390;2023-03-29T02:34:00;5.32;;;2.03;;
7338;SDS011;33747;49.524;8.390;2023-03-29T02:36:58;5.38;;;2.53;;
7338;SDS011;33747;49.524;8.390;2023-03-29T02:39:28;4.78;;;3.03;;
7338;SDS011;33747;49.524;8.390;2023-03-29T02:41:56;8.93;;;2.70;;
7338;SDS011;33747;49.524;8.390;2023-03-29T02:44:23;4.50;;;2.47;;
7338;SDS011;33747;49.524;8.390;2023-03-29T02:46:52;4.78;;;2.42;;
7338;SDS011;33747;49.524;8.390;2023-03-29T02:49:20;8.25;;;2.80;;
7338;SDS011;33747;49.524;8.390;2023-03-29T02:51:46;5.38;;;2.72;;
7338;SDS011;33747;49.524;8.390;2023-03-29T02:54:14;7.05;;;2.47;;
7338;SDS011;33747;49.524;8.390;2023-03-29T02:56:54;11.23;;;2.53;;
7338;SDS011;33747;49.524;8.390;2023-03-29T02:59:20;4.53;;;2.60;;
7338;SDS011;33747;49.524;8.390;2023-03-29T03:01:46;6.95;;;3.03;;
7338;SDS011;33747;49.524;8.390;2023-03-29T03:04:12;7.95;;;2.50;;
7338;SDS011;33747;49.524;8.390;2023-03-29T03:06:37;2.88;;;2.33;;
7338;SDS011;33747;49.524;8.390;2023-03-29T03:09:03;6.20;;;2.60;;
7338;SDS011;33747;49.524;8.390;2023-03-29T03:11:30;5.32;;;2.33;;
7338;SDS011;33747;49.524;8.390;2023-03-29T03:13:56;3.97;;;2.38;;
7338;SDS011;33747;49.524;8.390;2023-03-29T03:16:21;2.80;;;2.40;;
7338;SDS011;33747;49.524;8.390;2023-03-29T03:18:48;4.13;;;2.53;;
7338;SDS011;33747;49.524;8.390;2023-03-29T03:21:15;10.32;;;2.92;;
7338;SDS011;33747;49.524;8.390;2023-03-29T03:23:41;5.25;;;2.88;;
7338;SDS011;33747;49.524;8.390;2023-03-29T03:26:07;5.47;;;3.00;;
7338;SDS011;33747;49.524;8.390;2023-03-29T03:28:32;6.20;;;3.05;;
7338;SDS011;33747;49.524;8.390;2023-03-29T03:30:58;4.30;;;3.03;;
7338;SDS011;33747;49.524;8.390;2023-03-29T03:33:23;5.05;;;2.90;;
7338;SDS011;33747;49.524;8.390;2023-03-29T03:35:50;5.32;;;2.88;;
7338;SDS011;33747;49.524;8.390;2023-03-29T03:38:16;6.50;;;3.13;;
7338;SDS011;33747;49.524;8.390;2023-03-29T03:40:41;5.88;;;2.80;;
7338;SDS011;33747;49.524;8.390;2023-03-29T03:43:07;4.43;;;2.60;;
7338;SDS011;33747;49.524;8.390;2023-03-29T03:45:33;3.67;;;2.22;;
7338;SDS011;33747;49.524;8.390;2023-03-29T03:47:58;7.35;;;2.72;;
7338;SDS011;33747;49.524;8.390;2023-03-29T03:50:24;5.90;;;2.60;;
7338;SDS011;33747;49.524;8.390;2023-03-29T03:52:49;3.55;;;2.33;;
7338;SDS011;33747;49.524;8.390;2023-03-29T03:55:15;4.78;;;2.55;;
7338;SDS011;33747;49.524;8.390;2023-03-29T03:57:41;8.23;;;2.50;;
7338;SDS011;33747;49.524;8.390;2023-03-29T04:00:07;5.45;;;3.00;;
7338;SDS011;33747;49.524;8.390;2023-03-29T04:02:43;4.93;;;2.83;;
7338;SDS011;33747;49.524;8.390;2023-03-29T04:05:08;7.95;;;3.83;;
7338;SDS011;33747;49.524;8.390;2023-03-29T04:07:34;5.55;;;2.42;;
7338;SDS011;33747;49.524;8.390;2023-03-29T04:09:59;5.18;;;3.13;;
7338;SDS011;33747;49.524;8.390;2023-03-29T04:12:25;7.32;;;3.30;;
7338;SDS011;33747;49.524;8.390;2023-03-29T04:14:51;8.73;;;2.83;;
7338;SDS011;33747;49.524;8.390;2023-03-29T04:17:16;7.82;;;3.03;;
7338;SDS011;33747;49.524;8.390;2023-03-29T04:19:41;4.25;;;2.92;;
7338;SDS011;33747;49.524;8.390;2023-03-29T04:22:07;8.75;;;3.30;;
7338;SDS011;33747;49.524;8.390;2023-03-29T04:24:32;5.30;;;3.10;;
7338;SDS011;33747;49.524;8.390;2023-03-29T04:26:57;4.95;;;2.78;;
7338;SDS011;33747;49.524;8.390;2023-03-29T04:29:23;5.45;;;3.28;;
7338;SDS011;33747;49.524;8.390;2023-03-29T04:31:48;6.97;;;3.08;;
7338;SDS011;33747;49.524;8.390;2023-03-29T04:34:13;7.15;;;3.10;;
7338;SDS011;33747;49.524;8.390;2023-03-29T04:36:39;6.55;;;3.03;;
7338;SDS011;33747;49.524;8.390;2023-03-29T04:39:04;3.63;;;2.67;;
7338;SDS011;33747;49.524;8.390;2023-03-29T04:41:31;7.25;;;2.78;;
7338;SDS011;33747;49.524;8.390;2023-03-29T04:43:58;5.68;;;2.80;;
7338;SDS011;33747;49.524;8.390;2023-03-29T04:46:23;6.80;;;2.80;;
7338;SDS011;33747;49.524;8.390;2023-03-29T04:48:51;6.32;;;2.95;;
7338;SDS011;33747;49.524;8.390;2023-03-29T04:51:17;5.35;;;3.00;;
7338;SDS011;33747;49.524;8.390;2023-03-29T04:53:44;2.90;;;2.70;;
7338;SDS011;33747;49.524;8.390;2023-03-29T04:56:09;7.53;;;3.15;;
7338;SDS011;33747;49.524;8.390;2023-03-29T04:58:34;4.50;;;2.78;;
7338;SDS011;33747;49.524;8.390;2023-03-29T05:01:00;3.58;;;2.90;;
7338;SDS011;33747;49.524;8.390;2023-03-29T05:03:25;3.08;;;2.70;;
7338;SDS011;33747;49.524;8.390;2023-03-29T05:05:51;4.45;;;2.90;;
7338;SDS011;33747;49.524;8.390;2023-03-29T05:08:16;9.57;;;2.83;;
7338;SDS011;33747;49.524;8.390;2023-03-29T05:10:42;4.25;;;2.60;;
7338;SDS011;33747;49.524;8.390;2023-03-29T05:13:08;9.05;;;4.30;;
7338;SDS011;33747;49.524;8.390;2023-03-29T05:15:34;7.05;;;3.45;;
7338;SDS011;33747;49.524;8.390;2023-03-29T05:18:00;7.20;;;3.42;;
7338;SDS011;33747;49.524;8.390;2023-03-29T05:20:25;5.70;;;3.13;;
7338;SDS011;33747;49.524;8.390;2023-03-29T05:22:50;5.00;;;2.80;;
7338;SDS011;33747;49.524;8.390;2023-03-29T05:25:16;4.72;;;2.83;;
7338;SDS011;33747;49.524;8.390;2023-03-29T05:27:42;4.90;;;3.60;;
7338;SDS011;33747;49.524;8.390;2023-03-29T05:30:09;5.68;;;3.45;;
7338;SDS011;33747;49.524;8.390;2023-03-29T05:32:37;3.33;;;3.03;;
7338;SDS011;33747;49.524;8.390;2023-03-29T05:35:03;6.60;;;3.40;;
7338;SDS011;33747;49.524;8.390;2023-03-29T05:37:30;10.50;;;3.75;;
7338;SDS011;33747;49.524;8.390;2023-03-29T05:39:57;7.03;;;3.22;;
7338;SDS011;33747;49.524;8.390;2023-03-29T05:42:22;5.78;;;3.00;;
7338;SDS011;33747;49.524;8.390;2023-03-29T05:44:48;4.53;;;3.20;;
7338;SDS011;33747;49.524;8.390;2023-03-29T05:47:14;5.20;;;3.40;;
7338;SDS011;33747;49.524;8.390;2023-03-29T05:49:39;7.22;;;3.60;;
7338;SDS011;33747;49.524;8.390;2023-03-29T05:52:04;7.72;;;3.55;;
7338;SDS011;33747;49.524;8.390;2023-03-29T05:54:30;7.07;;;4.03;;
7338;SDS011;33747;49.524;8.390;2023-03-29T05:56:56;5.32;;;3.80;;
7338;SDS011;33747;49.524;8.390;2023-03-29T05:59:21;7.75;;;3.60;;
7338;SDS011;33747;49.524;8.390;2023-03-29T06:01:48;13.38;;;3.60;;
7338;SDS011;33747;49.524;8.390;2023-03-29T06:04:13;13.38;;;3.72;;
7338;SDS011;33747;49.524;8.390;2023-03-29T06:06:39;10.23;;;3.40;;
7338;SDS011;33747;49.524;8.390;2023-03-29T06:09:05;10.95;;;3.47;;
7338;SDS011;33747;49.524;8.390;2023-03-29T06:11:31;6.72;;;3.63;;
7338;SDS011;33747;49.524;8.390;2023-03-29T06:13:57;10.77;;;3.78;;
7338;SDS011;33747;49.524;8.390;2023-03-29T06:16:22;6.05;;;3.50;;
7338;SDS011;33747;49.524;8.390;2023-03-29T06:18:48;5.82;;;3.47;;
7338;SDS011;33747;49.524;8.390;2023-03-29T06:21:13;7.45;;;3.58;;
7338;SDS011;33747;49.524;8.390;2023-03-29T06:23:39;10.32;;;4.00;;
7338;SDS011;33747;49.524;8.390;2023-03-29T06:26:05;4.65;;;3.15;;
7338;SDS011;33747;49.524;8.390;2023-03-29T06:28:31;10.13;;;3.45;;
7338;SDS011;33747;49.524;8.390;2023-03-29T06:30:56;7.10;;;3.25;;
7338;SDS011;33747;49.524;8.390;2023-03-29T06:33:26;9.00;;;3.50;;
7338;SDS011;33747;49.524;8.390;2023-03-29T06:35:53;8.98;;;4.05;;
7338;SDS011;33747;49.524;8.390;2023-03-29T06:38:18;5.90;;;3.05;;
7338;SDS011;33747;49.524;8.390;2023-03-29T06:40:44;4.43;;;2.80;;
7338;SDS011;33747;49.524;8.390;2023-03-29T06:43:11;5.75;;;3.38;;
7338;SDS011;33747;49.524;8.390;2023-03-29T06:45:36;8.05;;;2.97;;
7338;SDS011;33747;49.524;8.390;2023-03-29T06:48:02;4.93;;;3.22;;
7338;SDS011;33747;49.524;8.390;2023-03-29T06:50:29;5.95;;;3.30;;
7338;SDS011;33747;49.524;8.390;2023-03-29T06:52:54;5.35;;;3.05;;
7338;SDS011;33747;49.524;8.390;2023-03-29T06:55:20;6.50;;;2.58;;
7338;SDS011;33747;49.524;8.390;2023-03-29T06:57:47;6.10;;;3.05;;
7338;SDS011;33747;49.524;8.390;2023-03-29T07:00:12;5.18;;;2.85;;
7338;SDS011;33747;49.524;8.390;2023-03-29T07:02:43;3.70;;;3.08;;
7338;SDS011;33747;49.524;8.390;2023-03-29T07:05:10;6.88;;;3.10;;
7338;SDS011;33747;49.524;8.390;2023-03-29T07:07:37;9.80;;;3.30;;
7338;SDS011;33747;49.524;8.390;2023-03-29T07:10:27;4.40;;;2.80;;
7338;SDS011;33747;49.524;8.390;2023-03-29T07:12:56;7.00;;;2.85;;
7338;SDS011;33747;49.524;8.390;2023-03-29T07:15:23;6.80;;;3.47;;
7338;SDS011;33747;49.524;8.390;2023-03-29T07:17:49;7.72;;;2.88;;
7338;SDS011;33747;49.524;8.390;2023-03-29T07:20:14;5.45;;;3.70;;
7338;SDS011;33747;49.524;8.390;2023-03-29T07:22:40;4.32;;;3.30;;
7338;SDS011;33747;49.524;8.390;2023-03-29T07:25:07;6.38;;;4.53;;
7338;SDS011;33747;49.524;8.390;2023-03-29T07:27:34;8.43;;;3.70;;
7338;SDS011;33747;49.524;8.390;2023-03-29T07:30:00;3.95;;;3.40;;
7338;SDS011;33747;49.524;8.390;2023-03-29T07:32:25;5.80;;;2.95;;
7338;SDS011;33747;49.524;8.390;2023-03-29T07:34:51;4.00;;;3.03;;
7338;SDS011;33747;49.524;8.390;2023-03-29T07:37:17;5.93;;;2.92;;
7338;SDS011;33747;49.524;8.390;2023-03-29T07:39:42;5.65;;;2.60;;
7338;SDS011;33747;49.524;8.390;2023-03-29T07:42:08;3.67;;;3.03;;
7338;SDS011;33747;49.524;8.390;2023-03-29T07:44:34;4.40;;;2.85;;
7338;SDS011;33747;49.524;8.390;2023-03-29T07:47:02;7.60;;;3.20;;
7338;SDS011;33747;49.524;8.390;2023-03-29T07:49:29;4.47;;;2.72;;
7338;SDS011;33747;49.524;8.390;2023-03-29T07:51:55;5.45;;;2.58;;
7338;SDS011;33747;49.524;8.390;2023-03-29T07:54:20;12.55;;;2.70;;
7338;SDS011;33747;49.524;8.390;2023-03-29T07:56:46;4.60;;;2.60;;
7338;SDS011;33747;49.524;8.390;2023-03-29T07:59:11;6.75;;;3.08;;
7338;SDS011;33747;49.524;8.390;2023-03-29T08:01:37;7.15;;;3.08;;
7338;SDS011;33747;49.524;8.390;2023-03-29T08:04:04;6.72;;;2.70;;
7338;SDS011;33747;49.524;8.390;2023-03-29T08:06:30;5.75;;;2.72;;
7338;SDS011;33747;49.524;8.390;2023-03-29T08:08:56;3.85;;;2.75;;
7338;SDS011;33747;49.524;8.390;2023-03-29T08:11:22;3.85;;;2.75;;
7338;SDS011;33747;49.524;8.390;2023-03-29T08:13:48;5.82;;;2.67;;
7338;SDS011;33747;49.524;8.390;2023-03-29T08:16:15;4.63;;;2.58;;
7338;SDS011;33747;49.524;8.390;2023-03-29T08:18:40;5.65;;;2.83;;
7338;SDS011;33747;49.524;8.390;2023-03-29T08:21:06;11.02;;;3.08;;
7338;SDS011;33747;49.524;8.390;2023-03-29T08:23:31;4.82;;;2.60;;
7338;SDS011;33747;49.524;8.390;2023-03-29T08:25:57;7.53;;;2.78;;
7338;SDS011;33747;49.524;8.390;2023-03-29T08:28:22;3.55;;;2.58;;
7338;SDS011;33747;49.524;8.390;2023-03-29T08:30:48;5.18;;;2.53;;
7338;SDS011;33747;49.524;8.390;2023-03-29T08:33:13;4.22;;;2.85;;
7338;SDS011;33747;49.524;8.390;2023-03-29T08:35:39;4.93;;;2.63;;
7338;SDS011;33747;49.524;8.390;2023-03-29T08:38:05;4.00;;;2.28;;
7338;SDS011;33747;49.524;8.390;2023-03-29T08:40:30;3.63;;;2.38;;
7338;SDS011;33747;49.524;8.390;2023-03-29T08:45:43;4.40;;;3.13;;
7338;SDS011;33747;49.524;8.390;2023-03-29T08:51:22;3.53;;;2.13;;
7338;SDS011;33747;49.524;8.390;2023-03-29T08:53:51;4.68;;;2.72;;
7338;SDS011;33747;49.524;8.390;2023-03-29T08:56:22;4.55;;;2.05;;
7338;SDS011;33747;49.524;8.390;2023-03-29T08:58:51;4.40;;;2.13;;
7338;SDS011;33747;49.524;8.390;2023-03-29T09:01:18;6.03;;;2.33;;
7338;SDS011;33747;49.524;8.390;2023-03-29T09:03:46;5.90;;;2.40;;
7338;SDS011;33747;49.524;8.390;2023-03-29T09:06:14;8.27;;;2.60;;
7338;SDS011;33747;49.524;8.390;2023-03-29T09:11:15;6.32;;;2.53;;
7338;SDS011;33747;49.524;8.390;2023-03-29T09:16:49;6.18;;;2.50;;
7338;SDS011;33747;49.524;8.390;2023-03-29T09:22:19;6.63;;;3.03;;
7338;SDS011;33747;49.524;8.390;2023-03-29T09:27:28;3.88;;;2.33;;
7338;SDS011;33747;49.524;8.390;2023-03-29T09:32:46;8.35;;;2.13;;
7338;SDS011;33747;49.524;8.390;2023-03-29T09:35:14;3.90;;;2.35;;
7338;SDS011;33747;49.524;8.390;2023-03-29T09:37:43;3.63;;;2.25;;
7338;SDS011;33747;49.524;8.390;2023-03-29T09:40:10;4.22;;;2.20;;
7338;SDS011;33747;49.524;8.390;2023-03-29T09:42:38;2.38;;;2.00;;
7338;SDS011;33747;49.524;8.390;2023-03-29T09:45:04;4.80;;;2.15;;
7338;SDS011;33747;49.524;8.390;2023-03-29T09:50:11;4.07;;;1.92;;
7338;SDS011;33747;49.524;8.390;2023-03-29T09:52:40;4.10;;;2.00;;
7338;SDS011;33747;49.524;8.390;2023-03-29T09:55:05;3.60;;;2.17;;
7338;SDS011;33747;49.524;8.390;2023-03-29T09:57:31;3.38;;;1.73;;
7338;SDS011;33747;49.524;8.390;2023-03-29T09:59:57;4.85;;;1.75;;
7338;SDS011;33747;49.524;8.390;2023-03-29T10:02:23;4.93;;;1.83;;
7338;SDS011;33747;49.524;8.390;2023-03-29T10:04:54;5.70;;;1.77;;
7338;SDS011;33747;49.524;8.390;2023-03-29T10:07:19;4.90;;;1.55;;
7338;SDS011;33747;49.524;8.390;2023-03-29T10:09:45;3.58;;;1.92;;
7338;SDS011;33747;49.524;8.390;2023-03-29T10:12:14;5.95;;;2.00;;
7338;SDS011;33747;49.524;8.390;2023-03-29T10:14:41;3.50;;;2.20;;
7338;SDS011;33747;49.524;8.390;2023-03-29T10:19:48;3.80;;;2.03;;
7338;SDS011;33747;49.524;8.390;2023-03-29T10:22:26;3.67;;;1.70;;
7338;SDS011;33747;49.524;8.390;2023-03-29T10:24:59;3.00;;;1.80;;
7338;SDS011;33747;49.524;8.390;2023-03-29T10:27:25;4.65;;;1.75;;
7338;SDS011;33747;49.524;8.390;2023-03-29T10:29:52;7.88;;;2.15;;
7338;SDS011;33747;49.524;8.390;2023-03-29T10:34:49;3.72;;;1.70;;
7338;SDS011;33747;49.524;8.390;2023-03-29T10:37:16;2.78;;;1.90;;
7338;SDS011;33747;49.524;8.390;2023-03-29T10:39:43;4.75;;;1.90;;
7338;SDS011;33747;49.524;8.390;2023-03-29T10:42:11;3.63;;;1.52;;
7338;SDS011;33747;49.524;8.390;2023-03-29T10:44:38;7.13;;;2.35;;
7338;SDS011;33747;49.524;8.390;2023-03-29T10:47:15;4.07;;;2.05;;
7338;SDS011;33747;49.524;8.390;2023-03-29T10:49:44;3.45;;;1.88;;
7338;SDS011;33747;49.524;8.390;2023-03-29T10:52:13;2.53;;;1.73;;
7338;SDS011;33747;49.524;8.390;2023-03-29T10:54:39;6.03;;;1.95;;
7338;SDS011;33747;49.524;8.390;2023-03-29T10:57:05;3.30;;;1.73;;
7338;SDS011;33747;49.524;8.390;2023-03-29T11:15:33;4.38;;;2.05;;
7338;SDS011;33747;49.524;8.390;2023-03-29T11:18:23;7.82;;;1.83;;
7338;SDS011;33747;49.524;8.390;2023-03-29T11:26:45;4.13;;;2.00;;
7338;SDS011;33747;49.524;8.390;2023-03-29T11:29:27;4.25;;;1.95;;
7338;SDS011;33747;49.524;8.390;2023-03-29T11:37:42;4.20;;;2.25;;
7338;SDS011;33747;49.524;8.390;2023-03-29T11:40:24;4.30;;;2.20;;
7338;SDS011;33747;49.524;8.390;2023-03-29T11:43:11;5.25;;;2.28;;
7338;SDS011;33747;49.524;8.390;2023-03-29T11:45:45;4.40;;;1.60;;
7338;SDS011;33747;49.524;8.390;2023-03-29T11:48:15;4.95;;;2.10;;
7338;SDS011;33747;49.524;8.390;2023-03-29T11:51:08;4.15;;;1.70;;
7338;SDS011;33747;49.524;8.390;2023-03-29T11:53:42;4.80;;;2.65;;
7338;SDS011;33747;49.524;8.390;2023-03-29T11:56:23;2.83;;;2.03;;
7338;SDS011;33747;49.524;8.390;2023-03-29T11:58:59;2.83;;;1.98;;
7338;SDS011;33747;49.524;8.390;2023-03-29T12:01:38;2.30;;;1.70;;
7338;SDS011;33747;49.524;8.390;2023-03-29T12:04:17;5.93;;;1.98;;
7338;SDS011;33747;49.524;8.390;2023-03-29T12:06:55;2.42;;;1.90;;
7338;SDS011;33747;49.524;8.390;2023-03-29T12:09:33;4.55;;;2.10;;
7338;SDS011;33747;49.524;8.390;2023-03-29T12:14:57;4.63;;;2.03;;
7338;SDS011;33747;49.524;8.390;2023-03-29T12:17:28;3.88;;;2.38;;
7338;SDS011;33747;49.524;8.390;2023-03-29T12:22:43;3.95;;;2.22;;
7338;SDS011;33747;49.524;8.390;2023-03-29T12:25:11;4.43;;;1.83;;
7338;SDS011;33747;49.524;8.390;2023-03-29T12:30:18;7.70;;;1.83;;
7338;SDS011;33747;49.524;8.390;2023-03-29T12:35:32;3.30;;;1.90;;
7338;SDS011;33747;49.524;8.390;2023-03-29T12:38:19;3.63;;;1.50;;
7338;SDS011;33747;49.524;8.390;2023-03-29T12:40:47;1.55;;;1.42;;
7338;SDS011;33747;49.524;8.390;2023-03-29T12:43:21;4.75;;;1.80;;
7338;SDS011;33747;49.524;8.390;2023-03-29T12:46:00;4.90;;;2.20;;
7338;SDS011;33747;49.524;8.390;2023-03-29T12:51:14;2.13;;;1.75;;
7338;SDS011;33747;49.524;8.390;2023-03-29T12:53:51;10.35;;;1.92;;
7338;SDS011;33747;49.524;8.390;2023-03-29T12:56:18;2.45;;;1.50;;
7338;SDS011;33747;49.524;8.390;2023-03-29T13:01:27;3.00;;;1.40;;
7338;SDS011;33747;49.524;8.390;2023-03-29T13:03:55;6.88;;;2.08;;
7338;SDS011;33747;49.524;8.390;2023-03-29T13:06:28;3.58;;;1.55;;
7338;SDS011;33747;49.524;8.390;2023-03-29T13:08:59;5.43;;;1.70;;
7338;SDS011;33747;49.524;8.390;2023-03-29T13:11:33;6.20;;;1.70;;
7338;SDS011;33747;49.524;8.390;2023-03-29T13:14:08;4.70;;;1.92;;
7338;SDS011;33747;49.524;8.390;2023-03-29T13:16:37;2.85;;;1.50;;
7338;SDS011;33747;49.524;8.390;2023-03-29T13:19:26;8.05;;;1.95;;
7338;SDS011;33747;49.524;8.390;2023-03-29T13:30:50;3.92;;;1.70;;
7338;SDS011;33747;49.524;8.390;2023-03-29T13:36:20;2.67;;;1.58;;
7338;SDS011;33747;49.524;8.390;2023-03-29T13:39:04;3.83;;;2.13;;
7338;SDS011;33747;49.524;8.390;2023-03-29T13:43:57;5.88;;;1.60;;
7338;SDS011;33747;49.524;8.390;2023-03-29T13:46:24;2.67;;;1.58;;
7338;SDS011;33747;49.524;8.390;2023-03-29T13:49:02;3.08;;;1.40;;
7338;SDS011;33747;49.524;8.390;2023-03-29T13:51:33;6.20;;;1.98;;
7338;SDS011;33747;49.524;8.390;2023-03-29T13:56:45;6.25;;;3.30;;
7338;SDS011;33747;49.524;8.390;2023-03-29T13:59:19;2.92;;;1.40;;
7338;SDS011;33747;49.524;8.390;2023-03-29T14:01:52;2.15;;;1.27;;
7338;SDS011;33747;49.524;8.390;2023-03-29T14:04:25;1.67;;;1.52;;
7338;SDS011;33747;49.524;8.390;2023-03-29T14:06:53;2.97;;;2.20;;
7338;SDS011;33747;49.524;8.390;2023-03-29T14:09:25;2.42;;;1.38;;
7338;SDS011;33747;49.524;8.390;2023-03-29T14:11:54;13.20;;;1.83;;
7338;SDS011;33747;49.524;8.390;2023-03-29T14:14:21;3.05;;;1.52;;
7338;SDS011;33747;49.524;8.390;2023-03-29T14:16:48;5.95;;;1.90;;
7338;SDS011;33747;49.524;8.390;2023-03-29T14:19:17;5.70;;;1.40;;
7338;SDS011;33747;49.524;8.390;2023-03-29T14:22:07;5.28;;;1.58;;
7338;SDS011;33747;49.524;8.390;2023-03-29T14:24:38;3.90;;;1.92;;
7338;SDS011;33747;49.524;8.390;2023-03-29T14:27:05;4.07;;;1.77;;
7338;SDS011;33747;49.524;8.390;2023-03-29T14:29:34;5.60;;;1.90;;
7338;SDS011;33747;49.524;8.390;2023-03-29T14:32:10;3.33;;;1.40;;
7338;SDS011;33747;49.524;8.390;2023-03-29T14:34:36;7.13;;;2.00;;
7338;SDS011;33747;49.524;8.390;2023-03-29T14:37:02;7.03;;;1.70;;
7338;SDS011;33747;49.524;8.390;2023-03-29T14:39:30;4.78;;;1.88;;
7338;SDS011;33747;49.524;8.390;2023-03-29T14:41:56;4.88;;;1.80;;
7338;SDS011;33747;49.524;8.390;2023-03-29T14:44:23;2.25;;;1.45;;
7338;SDS011;33747;49.524;8.390;2023-03-29T14:46:50;5.63;;;2.28;;
7338;SDS011;33747;49.524;8.390;2023-03-29T14:49:17;4.03;;;1.88;;
7338;SDS011;33747;49.524;8.390;2023-03-29T14:51:44;4.32;;;1.58;;
7338;SDS011;33747;49.524;8.390;2023-03-29T14:54:15;6.85;;;1.52;;
7338;SDS011;33747;49.524;8.390;2023-03-29T14:56:44;2.95;;;1.38;;
7338;SDS011;33747;49.524;8.390;2023-03-29T14:59:21;3.40;;;1.00;;
7338;SDS011;33747;49.524;8.390;2023-03-29T15:02:01;6.10;;;1.63;;
7338;SDS011;33747;49.524;8.390;2023-03-29T15:04:31;4.35;;;1.13;;
7338;SDS011;33747;49.524;8.390;2023-03-29T15:06:59;6.07;;;1.57;;
7338;SDS011;33747;49.524;8.390;2023-03-29T15:09:26;2.95;;;1.15;;
7338;SDS011;33747;49.524;8.390;2023-03-29T15:11:55;3.40;;;1.38;;
7338;SDS011;33747;49.524;8.390;2023-03-29T15:14:21;6.95;;;1.83;;
7338;SDS011;33747;49.524;8.390;2023-03-29T15:16:48;2.25;;;1.25;;
7338;SDS011;33747;49.524;8.390;2023-03-29T15:19:16;2.38;;;1.50;;
7338;SDS011;33747;49.524;8.390;2023-03-29T15:21:43;4.78;;;1.30;;
7338;SDS011;33747;49.524;8.390;2023-03-29T15:27:00;4.80;;;1.13;;
7338;SDS011;33747;49.524;8.390;2023-03-29T15:29:35;3.03;;;1.20;;
7338;SDS011;33747;49.524;8.390;2023-03-29T15:32:02;2.17;;;0.93;;
7338;SDS011;33747;49.524;8.390;2023-03-29T15:34:30;1.52;;;0.93;;
7338;SDS011;33747;49.524;8.390;2023-03-29T15:36:57;2.15;;;1.08;;
7338;SDS011;33747;49.524;8.390;2023-03-29T15:39:22;1.23;;;0.85;;
7338;SDS011;33747;49.524;8.390;2023-03-29T15:41:49;3.15;;;1.20;;
7338;SDS011;33747;49.524;8.390;2023-03-29T15:44:15;1.40;;;0.95;;
7338;SDS011;33747;49.524;8.390;2023-03-29T15:46:41;2.20;;;0.80;;
7338;SDS011;33747;49.524;8.390;2023-03-29T15:49:09;8.20;;;0.90;;
7338;SDS011;33747;49.524;8.390;2023-03-29T15:51:38;1.13;;;1.02;;
7338;SDS011;33747;49.524;8.390;2023-03-29T15:54:04;3.15;;;0.95;;
7338;SDS011;33747;49.524;8.390;2023-03-29T15:56:30;3.63;;;1.20;;
7338;SDS011;33747;49.524;8.390;2023-03-29T15:58:56;4.45;;;1.27;;
7338;SDS011;33747;49.524;8.390;2023-03-29T16:01:26;1.05;;;0.80;;
7338;SDS011;33747;49.524;8.390;2023-03-29T16:03:57;4.75;;;1.00;;
7338;SDS011;33747;49.524;8.390;2023-03-29T16:06:23;3.45;;;1.30;;
7338;SDS011;33747;49.524;8.390;2023-03-29T16:08:49;2.38;;;1.67;;
7338;SDS011;33747;49.524;8.390;2023-03-29T16:11:15;1.42;;;1.20;;
7338;SDS011;33747;49.524;8.390;2023-03-29T16:13:40;3.65;;;1.02;;
7338;SDS011;33747;49.524;8.390;2023-03-29T16:16:07;5.10;;;1.25;;
7338;SDS011;33747;49.524;8.390;2023-03-29T16:20:37;3.22;;;1.63;;
7338;SDS011;33747;49.524;8.390;2023-03-29T16:23:03;5.00;;;1.10;;
7338;SDS011;33747;49.524;8.390;2023-03-29T16:25:33;1.77;;;1.40;;
7338;SDS011;33747;49.524;8.390;2023-03-29T16:28:00;2.08;;;1.35;;
7338;SDS011;33747;49.524;8.390;2023-03-29T16:30:26;4.15;;;1.90;;
7338;SDS011;33747;49.524;8.390;2023-03-29T16:32:52;2.50;;;1.60;;
7338;SDS011;33747;49.524;8.390;2023-03-29T16:35:19;4.75;;;1.88;;
7338;SDS011;33747;49.524;8.390;2023-03-29T16:37:48;2.58;;;1.75;;
7338;SDS011;33747;49.524;8.390;2023-03-29T16:40:14;8.27;;;2.05;;
7338;SDS011;33747;49.524;8.390;2023-03-29T16:42:40;2.83;;;1.70;;
7338;SDS011;33747;49.524;8.390;2023-03-29T16:45:06;4.97;;;1.90;;
7338;SDS011;33747;49.524;8.390;2023-03-29T16:47:33;5.57;;;1.70;;
7338;SDS011;33747;49.524;8.390;2023-03-29T16:49:58;4.30;;;1.40;;